sensor_id;sensor_type;location;lat;lon;timestamp;P1;durP1;ratioP1;P2;durP2;ratioP2
24681;SDS011;12802;53.390;-2.328;2022-09-20T00:02:01;3.70;;;2.10;;
24681;SDS011;12802;53.390;-2.328;2022-09-20T00:04:27;4.30;;;2.47;;
24681;SDS011;12802;53.390;-2.328;2022-09-20T00:06:53;3.10;;;1.77;;
24681;SDS011;12802;53.390;-2.328;2022-09-20T00:09:19;3.28;;;1.98;;
24681;SDS011;12802;53.390;-2.328;2022-09-20T00:11:45;2.95;;;1.73;;
24681;SDS011;12802;53.390;-2.328;2022-09-20T00:14:10;4.38;;;2.10;;
24681;SDS011;12802;53.390;-2.328;2022-09-20T00:16:38;6.57;;;2.05;;
24681;SDS011;12802;53.390;-2.328;2022-09-20T00:19:04;2.60;;;1.63;;
24681;SDS011;12802;53.390;-2.328;2022-09-20T00:21:31;4.57;;;1.90;;
24681;SDS011;12802;53.390;-2.328;2022-09-20T00:23:59;3.72;;;1.95;;
24681;SDS011;12802;53.390;-2.328;2022-09-20T00:26:26;2.60;;;1.52;;
24681;SDS011;12802;53.390;-2.328;2022-09-20T00:28:53;4.30;;;2.08;;
24681;SDS011;12802;53.390;-2.328;2022-09-20T00:31:19;6.60;;;2.17;;
24681;SDS011;12802;53.390;-2.328;2022-09-20T00:33:44;2.00;;;1.60;;
24681;SDS011;12802;53.390;-2.328;2022-09-20T00:36:29;3.03;;;1.70;;
24681;SDS011;12802;53.390;-2.328;2022-09-20T00:38:56;5.03;;;1.75;;
24681;SDS011;12802;53.390;-2.328;2022-09-20T00:41:23;3.88;;;2.05;;
24681;SDS011;12802;53.390;-2.328;2022-09-20T00:43:49;3.00;;;1.70;;
24681;SDS011;12802;53.390;-2.328;2022-09-20T00:49:11;4.10;;;1.13;;
24681;SDS011;12802;53.390;-2.328;2022-09-20T00:51:38;2.78;;;1.38;;
24681;SDS011;12802;53.390;-2.328;2022-09-20T00:54:07;3.43;;;1.77;;
24681;SDS011;12802;53.390;-2.328;2022-09-20T00:56:37;2.35;;;1.10;;
24681;SDS011;12802;53.390;-2.328;2022-09-20T00:59:21;1.80;;;1.15;;
24681;SDS011;12802;53.390;-2.328;2022-09-20T01:01:59;1.80;;;1.38;;
24681;SDS011;12802;53.390;-2.328;2022-09-20T01:04:29;3.55;;;1.50;;
24681;SDS011;12802;53.390;-2.328;2022-09-20T01:06:56;3.88;;;1.27;;
24681;SDS011;12802;53.390;-2.328;2022-09-20T01:09:24;4.43;;;1.67;;
24681;SDS011;12802;53.390;-2.328;2022-09-20T01:11:51;2.33;;;1.23;;
24681;SDS011;12802;53.390;-2.328;2022-09-20T01:14:19;3.63;;;1.90;;
24681;SDS011;12802;53.390;-2.328;2022-09-20T01:16:47;2.38;;;1.60;;
24681;SDS011;12802;53.390;-2.328;2022-09-20T01:19:35;4.07;;;2.38;;
24681;SDS011;12802;53.390;-2.328;2022-09-20T01:22:59;2.35;;;1.35;;
24681;SDS011;12802;53.390;-2.328;2022-09-20T01:25:16;2.08;;;1.38;;
24681;SDS011;12802;53.390;-2.328;2022-09-20T01:28:03;3.17;;;1.75;;
24681;SDS011;12802;53.390;-2.328;2022-09-20T01:30:32;5.10;;;2.17;;
24681;SDS011;12802;53.390;-2.328;2022-09-20T01:35:51;3.55;;;1.88;;
24681;SDS011;12802;53.390;-2.328;2022-09-20T01:41:08;3.53;;;2.03;;
24681;SDS011;12802;53.390;-2.328;2022-09-20T02:00:09;3.60;;;2.60;;
24681;SDS011;12802;53.390;-2.328;2022-09-20T02:46:58;3.35;;;2.17;;
24681;SDS011;12802;53.390;-2.328;2022-09-20T02:55:31;4.38;;;2.65;;
24681;SDS011;12802;53.390;-2.328;2022-09-20T02:58:03;4.63;;;3.15;;
24681;SDS011;12802;53.390;-2.328;2022-09-20T03:01:08;10.95;;;3.53;;
24681;SDS011;12802;53.390;-2.328;2022-09-20T03:06:48;6.32;;;3.28;;
24681;SDS011;12802;53.390;-2.328;2022-09-20T03:09:29;7.28;;;3.80;;
24681;SDS011;12802;53.390;-2.328;2022-09-20T03:12:17;5.75;;;3.75;;
24681;SDS011;12802;53.390;-2.328;2022-09-20T03:29:17;6.68;;;3.40;;
24681;SDS011;12802;53.390;-2.328;2022-09-20T03:34:50;8.20;;;4.07;;
24681;SDS011;12802;53.390;-2.328;2022-09-20T03:42:48;10.38;;;4.78;;
24681;SDS011;12802;53.390;-2.328;2022-09-20T03:53:20;6.38;;;3.75;;
24681;SDS011;12802;53.390;-2.328;2022-09-20T03:56:03;6.35;;;3.97;;
24681;SDS011;12802;53.390;-2.328;2022-09-20T03:58:45;6.90;;;4.03;;
24681;SDS011;12802;53.390;-2.328;2022-09-20T04:18:49;6.95;;;3.45;;
24681;SDS011;12802;53.390;-2.328;2022-09-20T04:21:37;8.35;;;4.63;;
24681;SDS011;12802;53.390;-2.328;2022-09-20T04:24:14;7.78;;;3.92;;
24681;SDS011;12802;53.390;-2.328;2022-09-20T04:26:48;6.07;;;3.20;;
24681;SDS011;12802;53.390;-2.328;2022-09-20T04:29:32;5.95;;;3.38;;
24681;SDS011;12802;53.390;-2.328;2022-09-20T04:34:32;7.07;;;4.60;;
24681;SDS011;12802;53.390;-2.328;2022-09-20T04:37:23;5.97;;;4.18;;
24681;SDS011;12802;53.390;-2.328;2022-09-20T04:40:21;8.68;;;5.18;;
24681;SDS011;12802;53.390;-2.328;2022-09-20T04:43:20;8.20;;;4.63;;
24681;SDS011;12802;53.390;-2.328;2022-09-20T04:46:02;8.30;;;3.90;;
24681;SDS011;12802;53.390;-2.328;2022-09-20T04:49:04;8.27;;;4.50;;
24681;SDS011;12802;53.390;-2.328;2022-09-20T05:00:11;9.45;;;5.25;;
24681;SDS011;12802;53.390;-2.328;2022-09-20T05:28:09;7.75;;;4.95;;
24681;SDS011;12802;53.390;-2.328;2022-09-20T05:33:42;10.27;;;6.47;;
24681;SDS011;12802;53.390;-2.328;2022-09-20T05:39:28;9.38;;;5.30;;
24681;SDS011;12802;53.390;-2.328;2022-09-20T06:01:29;9.15;;;5.15;;
24681;SDS011;12802;53.390;-2.328;2022-09-20T06:07:11;8.80;;;5.60;;
24681;SDS011;12802;53.390;-2.328;2022-09-20T06:15:51;11.93;;;5.25;;
24681;SDS011;12802;53.390;-2.328;2022-09-20T06:23:43;10.05;;;4.82;;
24681;SDS011;12802;53.390;-2.328;2022-09-20T06:26:16;9.43;;;5.30;;
24681;SDS011;12802;53.390;-2.328;2022-09-20T06:28:55;9.18;;;5.70;;
24681;SDS011;12802;53.390;-2.328;2022-09-20T06:31:25;11.45;;;5.43;;
24681;SDS011;12802;53.390;-2.328;2022-09-20T06:42:22;12.82;;;5.25;;
24681;SDS011;12802;53.390;-2.328;2022-09-20T06:44:50;11.57;;;5.70;;
24681;SDS011;12802;53.390;-2.328;2022-09-20T06:47:16;7.80;;;5.03;;
24681;SDS011;12802;53.390;-2.328;2022-09-20T06:49:42;6.25;;;4.13;;
24681;SDS011;12802;53.390;-2.328;2022-09-20T06:52:12;7.07;;;4.60;;
24681;SDS011;12802;53.390;-2.328;2022-09-20T06:54:41;7.68;;;5.25;;
24681;SDS011;12802;53.390;-2.328;2022-09-20T06:59:38;9.45;;;4.32;;
24681;SDS011;12802;53.390;-2.328;2022-09-20T07:02:04;11.02;;;4.88;;
24681;SDS011;12802;53.390;-2.328;2022-09-20T07:04:30;10.38;;;4.18;;
24681;SDS011;12802;53.390;-2.328;2022-09-20T07:07:00;10.00;;;4.80;;
24681;SDS011;12802;53.390;-2.328;2022-09-20T07:09:26;10.10;;;3.75;;
24681;SDS011;12802;53.390;-2.328;2022-09-20T07:11:53;6.95;;;3.70;;
24681;SDS011;12802;53.390;-2.328;2022-09-20T07:14:21;13.02;;;4.68;;
24681;SDS011;12802;53.390;-2.328;2022-09-20T07:16:47;10.43;;;4.72;;
24681;SDS011;12802;53.390;-2.328;2022-09-20T07:19:13;7.53;;;3.97;;
24681;SDS011;12802;53.390;-2.328;2022-09-20T07:21:40;10.38;;;4.70;;
24681;SDS011;12802;53.390;-2.328;2022-09-20T07:24:06;11.23;;;4.13;;
24681;SDS011;12802;53.390;-2.328;2022-09-20T07:26:32;7.65;;;4.25;;
24681;SDS011;12802;53.390;-2.328;2022-09-20T07:28:58;6.70;;;4.00;;
24681;SDS011;12802;53.390;-2.328;2022-09-20T07:31:25;7.40;;;4.10;;
24681;SDS011;12802;53.390;-2.328;2022-09-20T07:33:53;8.25;;;3.95;;
24681;SDS011;12802;53.390;-2.328;2022-09-20T07:36:19;14.75;;;5.22;;
24681;SDS011;12802;53.390;-2.328;2022-09-20T07:38:46;8.90;;;4.50;;
24681;SDS011;12802;53.390;-2.328;2022-09-20T07:41:13;7.68;;;4.03;;
24681;SDS011;12802;53.390;-2.328;2022-09-20T07:43:38;10.25;;;4.13;;
24681;SDS011;12802;53.390;-2.328;2022-09-20T07:46:04;6.13;;;3.75;;
24681;SDS011;12802;53.390;-2.328;2022-09-20T07:48:32;10.48;;;4.38;;
24681;SDS011;12802;53.390;-2.328;2022-09-20T07:51:03;5.85;;;3.38;;
24681;SDS011;12802;53.390;-2.328;2022-09-20T07:53:31;9.40;;;4.90;;
24681;SDS011;12802;53.390;-2.328;2022-09-20T07:58:32;5.72;;;3.67;;
24681;SDS011;12802;53.390;-2.328;2022-09-20T08:01:00;10.68;;;4.70;;
24681;SDS011;12802;53.390;-2.328;2022-09-20T08:03:29;8.75;;;5.18;;
24681;SDS011;12802;53.390;-2.328;2022-09-20T08:06:08;7.70;;;3.63;;
24681;SDS011;12802;53.390;-2.328;2022-09-20T08:08:37;12.45;;;4.88;;
24681;SDS011;12802;53.390;-2.328;2022-09-20T08:11:08;5.32;;;3.47;;
24681;SDS011;12802;53.390;-2.328;2022-09-20T08:13:39;6.88;;;4.30;;
24681;SDS011;12802;53.390;-2.328;2022-09-20T08:16:08;8.93;;;4.45;;
24681;SDS011;12802;53.390;-2.328;2022-09-20T08:18:36;6.93;;;4.25;;
24681;SDS011;12802;53.390;-2.328;2022-09-20T08:21:06;7.22;;;4.20;;
24681;SDS011;12802;53.390;-2.328;2022-09-20T08:23:33;8.32;;;5.30;;
24681;SDS011;12802;53.390;-2.328;2022-09-20T08:26:00;8.40;;;5.05;;
24681;SDS011;12802;53.390;-2.328;2022-09-20T08:28:27;9.25;;;5.10;;
24681;SDS011;12802;53.390;-2.328;2022-09-20T08:30:59;8.02;;;4.18;;
24681;SDS011;12802;53.390;-2.328;2022-09-20T08:33:26;8.15;;;4.32;;
24681;SDS011;12802;53.390;-2.328;2022-09-20T08:35:52;10.02;;;4.82;;
24681;SDS011;12802;53.390;-2.328;2022-09-20T08:38:19;8.40;;;5.20;;
24681;SDS011;12802;53.390;-2.328;2022-09-20T08:40:46;11.10;;;5.38;;
24681;SDS011;12802;53.390;-2.328;2022-09-20T08:43:13;8.57;;;4.55;;
24681;SDS011;12802;53.390;-2.328;2022-09-20T08:45:40;9.65;;;4.78;;
24681;SDS011;12802;53.390;-2.328;2022-09-20T08:48:09;7.85;;;4.65;;
24681;SDS011;12802;53.390;-2.328;2022-09-20T08:50:39;9.57;;;4.57;;
24681;SDS011;12802;53.390;-2.328;2022-09-20T08:53:06;8.35;;;4.57;;
24681;SDS011;12802;53.390;-2.328;2022-09-20T08:55:38;8.75;;;5.00;;
24681;SDS011;12802;53.390;-2.328;2022-09-20T08:58:08;6.38;;;4.35;;
24681;SDS011;12802;53.390;-2.328;2022-09-20T09:00:36;14.40;;;4.60;;
24681;SDS011;12802;53.390;-2.328;2022-09-20T09:03:04;7.63;;;4.63;;
24681;SDS011;12802;53.390;-2.328;2022-09-20T09:05:36;7.95;;;4.38;;
24681;SDS011;12802;53.390;-2.328;2022-09-20T09:08:08;13.65;;;5.05;;
24681;SDS011;12802;53.390;-2.328;2022-09-20T09:10:55;8.32;;;4.10;;
24681;SDS011;12802;53.390;-2.328;2022-09-20T09:13:24;10.45;;;4.40;;
24681;SDS011;12802;53.390;-2.328;2022-09-20T09:15:56;10.68;;;4.55;;
24681;SDS011;12802;53.390;-2.328;2022-09-20T09:18:31;7.07;;;4.93;;
24681;SDS011;12802;53.390;-2.328;2022-09-20T09:21:00;7.22;;;4.70;;
24681;SDS011;12802;53.390;-2.328;2022-09-20T09:23:29;8.07;;;5.13;;
24681;SDS011;12802;53.390;-2.328;2022-09-20T09:26:02;11.32;;;4.80;;
24681;SDS011;12802;53.390;-2.328;2022-09-20T09:28:29;8.73;;;4.13;;
24681;SDS011;12802;53.390;-2.328;2022-09-20T09:33:52;7.75;;;4.20;;
24681;SDS011;12802;53.390;-2.328;2022-09-20T09:36:22;15.43;;;5.47;;
24681;SDS011;12802;53.390;-2.328;2022-09-20T09:38:50;5.38;;;3.90;;
24681;SDS011;12802;53.390;-2.328;2022-09-20T09:41:35;11.00;;;4.68;;
24681;SDS011;12802;53.390;-2.328;2022-09-20T09:44:05;11.18;;;4.55;;
24681;SDS011;12802;53.390;-2.328;2022-09-20T09:46:43;6.90;;;4.15;;
24681;SDS011;12802;53.390;-2.328;2022-09-20T09:49:16;11.75;;;5.38;;
24681;SDS011;12802;53.390;-2.328;2022-09-20T09:54:40;11.27;;;4.68;;
24681;SDS011;12802;53.390;-2.328;2022-09-20T10:00:17;9.35;;;4.72;;
24681;SDS011;12802;53.390;-2.328;2022-09-20T10:08:38;8.02;;;4.47;;
24681;SDS011;12802;53.390;-2.328;2022-09-20T10:14:30;12.60;;;4.47;;
24681;SDS011;12802;53.390;-2.328;2022-09-20T10:34:07;6.10;;;3.85;;
24681;SDS011;12802;53.390;-2.328;2022-09-20T10:44:52;6.78;;;4.15;;
24681;SDS011;12802;53.390;-2.328;2022-09-20T10:47:37;7.97;;;4.20;;
24681;SDS011;12802;53.390;-2.328;2022-09-20T10:53:14;10.27;;;5.15;;
24681;SDS011;12802;53.390;-2.328;2022-09-20T11:10:19;6.07;;;2.75;;
24681;SDS011;12802;53.390;-2.328;2022-09-20T11:13:02;6.22;;;3.38;;
24681;SDS011;12802;53.390;-2.328;2022-09-20T11:18:20;5.38;;;3.75;;
24681;SDS011;12802;53.390;-2.328;2022-09-20T11:26:52;7.82;;;3.20;;
24681;SDS011;12802;53.390;-2.328;2022-09-20T11:29:35;5.05;;;3.00;;
24681;SDS011;12802;53.390;-2.328;2022-09-20T11:37:16;6.72;;;2.53;;
24681;SDS011;12802;53.390;-2.328;2022-09-20T11:42:18;4.40;;;1.92;;
24681;SDS011;12802;53.390;-2.328;2022-09-20T11:44:47;4.30;;;2.75;;
24681;SDS011;12802;53.390;-2.328;2022-09-20T11:47:22;4.82;;;2.22;;
24681;SDS011;12802;53.390;-2.328;2022-09-20T11:52:28;7.45;;;3.75;;
24681;SDS011;12802;53.390;-2.328;2022-09-20T11:57:25;5.70;;;2.85;;
24681;SDS011;12802;53.390;-2.328;2022-09-20T11:59:56;5.10;;;3.00;;
24681;SDS011;12802;53.390;-2.328;2022-09-20T12:08:19;7.10;;;3.50;;
24681;SDS011;12802;53.390;-2.328;2022-09-20T12:11:10;4.95;;;2.58;;
24681;SDS011;12802;53.390;-2.328;2022-09-20T12:13:42;4.10;;;2.50;;
24681;SDS011;12802;53.390;-2.328;2022-09-20T12:19:07;2.65;;;1.80;;
24681;SDS011;12802;53.390;-2.328;2022-09-20T12:24:29;4.93;;;2.72;;
24681;SDS011;12802;53.390;-2.328;2022-09-20T12:29:51;6.30;;;2.57;;
24681;SDS011;12802;53.390;-2.328;2022-09-20T12:32:29;8.55;;;3.28;;
24681;SDS011;12802;53.390;-2.328;2022-09-20T12:34:55;6.45;;;3.50;;
24681;SDS011;12802;53.390;-2.328;2022-09-20T12:37:22;7.68;;;3.08;;
24681;SDS011;12802;53.390;-2.328;2022-09-20T12:39:51;7.72;;;2.97;;
24681;SDS011;12802;53.390;-2.328;2022-09-20T12:42:29;5.97;;;2.60;;
24681;SDS011;12802;53.390;-2.328;2022-09-20T12:47:32;4.18;;;2.53;;
24681;SDS011;12802;53.390;-2.328;2022-09-20T12:50:01;4.00;;;2.30;;
24681;SDS011;12802;53.390;-2.328;2022-09-20T12:52:59;4.35;;;2.00;;
24681;SDS011;12802;53.390;-2.328;2022-09-20T12:58:23;2.90;;;1.48;;
24681;SDS011;12802;53.390;-2.328;2022-09-20T13:19:41;3.22;;;1.20;;
24681;SDS011;12802;53.390;-2.328;2022-09-20T13:25:21;2.40;;;1.50;;
24681;SDS011;12802;53.390;-2.328;2022-09-20T13:27:30;9.20;;;2.53;;
24681;SDS011;12802;53.390;-2.328;2022-09-20T13:30:32;4.18;;;1.70;;
24681;SDS011;12802;53.390;-2.328;2022-09-20T13:32:52;6.55;;;2.45;;
24681;SDS011;12802;53.390;-2.328;2022-09-20T13:35:20;3.20;;;1.92;;
24681;SDS011;12802;53.390;-2.328;2022-09-20T13:40:36;3.95;;;2.00;;
24681;SDS011;12802;53.390;-2.328;2022-09-20T13:46:09;9.25;;;2.00;;
24681;SDS011;12802;53.390;-2.328;2022-09-20T13:48:45;3.88;;;2.05;;
24681;SDS011;12802;53.390;-2.328;2022-09-20T13:51:16;3.47;;;1.40;;
24681;SDS011;12802;53.390;-2.328;2022-09-20T13:53:49;5.53;;;1.92;;
24681;SDS011;12802;53.390;-2.328;2022-09-20T13:56:26;4.25;;;2.05;;
24681;SDS011;12802;53.390;-2.328;2022-09-20T13:58:54;4.75;;;2.00;;
24681;SDS011;12802;53.390;-2.328;2022-09-20T14:01:29;4.63;;;2.05;;
24681;SDS011;12802;53.390;-2.328;2022-09-20T14:04:04;4.25;;;1.70;;
24681;SDS011;12802;53.390;-2.328;2022-09-20T14:06:32;2.67;;;1.52;;
24681;SDS011;12802;53.390;-2.328;2022-09-20T14:09:00;2.85;;;1.73;;
24681;SDS011;12802;53.390;-2.328;2022-09-20T14:11:28;6.43;;;2.22;;
24681;SDS011;12802;53.390;-2.328;2022-09-20T14:13:56;7.32;;;2.22;;
24681;SDS011;12802;53.390;-2.328;2022-09-20T14:16:26;3.20;;;1.75;;
24681;SDS011;12802;53.390;-2.328;2022-09-20T14:18:55;9.60;;;1.75;;
24681;SDS011;12802;53.390;-2.328;2022-09-20T14:21:24;3.15;;;1.67;;
24681;SDS011;12802;53.390;-2.328;2022-09-20T14:26:23;4.85;;;2.42;;
24681;SDS011;12802;53.390;-2.328;2022-09-20T14:28:50;3.15;;;1.55;;
24681;SDS011;12802;53.390;-2.328;2022-09-20T14:33:47;3.42;;;1.98;;
24681;SDS011;12802;53.390;-2.328;2022-09-20T14:36:34;5.30;;;2.00;;
24681;SDS011;12802;53.390;-2.328;2022-09-20T14:39:00;3.92;;;1.90;;
24681;SDS011;12802;53.390;-2.328;2022-09-20T14:41:38;4.80;;;2.50;;
24681;SDS011;12802;53.390;-2.328;2022-09-20T14:44:13;6.72;;;1.70;;
24681;SDS011;12802;53.390;-2.328;2022-09-20T14:47:11;3.10;;;1.88;;
24681;SDS011;12802;53.390;-2.328;2022-09-20T14:49:39;3.85;;;2.10;;
24681;SDS011;12802;53.390;-2.328;2022-09-20T14:55:00;3.95;;;1.92;;
24681;SDS011;12802;53.390;-2.328;2022-09-20T14:57:38;3.28;;;1.50;;
24681;SDS011;12802;53.390;-2.328;2022-09-20T15:00:10;9.65;;;2.45;;
24681;SDS011;12802;53.390;-2.328;2022-09-20T15:02:42;7.18;;;2.28;;
24681;SDS011;12802;53.390;-2.328;2022-09-20T15:05:25;3.75;;;2.30;;
24681;SDS011;12802;53.390;-2.328;2022-09-20T15:07:53;4.88;;;2.13;;
24681;SDS011;12802;53.390;-2.328;2022-09-20T15:10:21;5.30;;;2.67;;
24681;SDS011;12802;53.390;-2.328;2022-09-20T15:12:47;7.22;;;2.65;;
24681;SDS011;12802;53.390;-2.328;2022-09-20T15:15:14;4.38;;;2.28;;
24681;SDS011;12802;53.390;-2.328;2022-09-20T15:17:41;2.40;;;1.52;;
24681;SDS011;12802;53.390;-2.328;2022-09-20T15:20:11;4.70;;;2.55;;
24681;SDS011;12802;53.390;-2.328;2022-09-20T15:22:40;3.17;;;2.03;;
24681;SDS011;12802;53.390;-2.328;2022-09-20T15:25:07;4.05;;;2.13;;
24681;SDS011;12802;53.390;-2.328;2022-09-20T15:27:37;3.72;;;2.40;;
24681;SDS011;12802;53.390;-2.328;2022-09-20T15:30:03;4.15;;;2.13;;
24681;SDS011;12802;53.390;-2.328;2022-09-20T15:32:30;3.85;;;2.13;;
24681;SDS011;12802;53.390;-2.328;2022-09-20T15:34:56;3.97;;;2.33;;
24681;SDS011;12802;53.390;-2.328;2022-09-20T15:37:21;4.47;;;3.00;;
24681;SDS011;12802;53.390;-2.328;2022-09-20T15:39:47;7.60;;;2.67;;
24681;SDS011;12802;53.390;-2.328;2022-09-20T15:42:13;8.05;;;3.05;;
24681;SDS011;12802;53.390;-2.328;2022-09-20T15:44:39;7.65;;;2.63;;
24681;SDS011;12802;53.390;-2.328;2022-09-20T15:47:05;10.85;;;2.92;;
24681;SDS011;12802;53.390;-2.328;2022-09-20T15:49:31;3.15;;;1.92;;
24681;SDS011;12802;53.390;-2.328;2022-09-20T15:51:57;7.07;;;2.40;;
24681;SDS011;12802;53.390;-2.328;2022-09-20T15:54:23;3.38;;;2.20;;
24681;SDS011;12802;53.390;-2.328;2022-09-20T15:56:50;6.82;;;3.03;;
24681;SDS011;12802;53.390;-2.328;2022-09-20T15:59:17;5.60;;;2.33;;
24681;SDS011;12802;53.390;-2.328;2022-09-20T16:01:47;7.07;;;3.08;;
24681;SDS011;12802;53.390;-2.328;2022-09-20T16:04:17;3.78;;;2.28;;
24681;SDS011;12802;53.390;-2.328;2022-09-20T16:06:44;7.40;;;2.95;;
24681;SDS011;12802;53.390;-2.328;2022-09-20T16:09:12;6.63;;;2.70;;
24681;SDS011;12802;53.390;-2.328;2022-09-20T16:11:38;7.43;;;3.25;;
24681;SDS011;12802;53.390;-2.328;2022-09-20T16:14:04;6.45;;;3.08;;
24681;SDS011;12802;53.390;-2.328;2022-09-20T16:16:31;6.13;;;3.47;;
24681;SDS011;12802;53.390;-2.328;2022-09-20T16:18:58;8.77;;;3.45;;
24681;SDS011;12802;53.390;-2.328;2022-09-20T16:21:44;5.50;;;2.92;;
24681;SDS011;12802;53.390;-2.328;2022-09-20T16:24:12;9.20;;;2.42;;
24681;SDS011;12802;53.390;-2.328;2022-09-20T16:26:39;7.95;;;3.55;;
24681;SDS011;12802;53.390;-2.328;2022-09-20T16:29:05;6.57;;;3.33;;
24681;SDS011;12802;53.390;-2.328;2022-09-20T16:31:34;6.00;;;3.38;;
24681;SDS011;12802;53.390;-2.328;2022-09-20T16:34:06;5.65;;;3.13;;
24681;SDS011;12802;53.390;-2.328;2022-09-20T16:36:50;6.45;;;3.13;;
24681;SDS011;12802;53.390;-2.328;2022-09-20T16:39:21;5.22;;;2.58;;
24681;SDS011;12802;53.390;-2.328;2022-09-20T16:41:57;3.97;;;2.40;;
24681;SDS011;12802;53.390;-2.328;2022-09-20T16:44:30;4.15;;;2.60;;
24681;SDS011;12802;53.390;-2.328;2022-09-20T16:46:57;4.35;;;2.63;;
24681;SDS011;12802;53.390;-2.328;2022-09-20T16:49:23;4.43;;;2.72;;
24681;SDS011;12802;53.390;-2.328;2022-09-20T16:51:50;5.47;;;2.70;;
24681;SDS011;12802;53.390;-2.328;2022-09-20T16:54:16;11.63;;;2.42;;
24681;SDS011;12802;53.390;-2.328;2022-09-20T16:56:44;4.25;;;2.65;;
24681;SDS011;12802;53.390;-2.328;2022-09-20T16:59:12;6.63;;;2.25;;
24681;SDS011;12802;53.390;-2.328;2022-09-20T17:01:40;6.75;;;3.17;;
24681;SDS011;12802;53.390;-2.328;2022-09-20T17:04:07;8.85;;;2.40;;
24681;SDS011;12802;53.390;-2.328;2022-09-20T17:06:34;4.45;;;2.75;;
24681;SDS011;12802;53.390;-2.328;2022-09-20T17:09:02;5.13;;;2.65;;
24681;SDS011;12802;53.390;-2.328;2022-09-20T17:11:29;5.65;;;3.00;;
24681;SDS011;12802;53.390;-2.328;2022-09-20T17:14:00;5.57;;;3.00;;
24681;SDS011;12802;53.390;-2.328;2022-09-20T17:16:28;4.97;;;2.47;;
24681;SDS011;12802;53.390;-2.328;2022-09-20T17:18:59;4.28;;;2.53;;
24681;SDS011;12802;53.390;-2.328;2022-09-20T17:21:27;6.28;;;2.50;;
24681;SDS011;12802;53.390;-2.328;2022-09-20T17:23:54;7.70;;;2.22;;
24681;SDS011;12802;53.390;-2.328;2022-09-20T17:26:26;6.80;;;2.72;;
24681;SDS011;12802;53.390;-2.328;2022-09-20T17:28:55;5.53;;;3.38;;
24681;SDS011;12802;53.390;-2.328;2022-09-20T17:31:29;6.93;;;4.13;;
24681;SDS011;12802;53.390;-2.328;2022-09-20T17:33:58;7.30;;;4.90;;
24681;SDS011;12802;53.390;-2.328;2022-09-20T17:36:28;5.60;;;3.17;;
24681;SDS011;12802;53.390;-2.328;2022-09-20T17:38:57;4.28;;;2.70;;
24681;SDS011;12802;53.390;-2.328;2022-09-20T17:41:24;2.65;;;1.27;;
24681;SDS011;12802;53.390;-2.328;2022-09-20T17:43:52;5.47;;;2.10;;
24681;SDS011;12802;53.390;-2.328;2022-09-20T17:46:21;2.90;;;1.90;;
24681;SDS011;12802;53.390;-2.328;2022-09-20T17:48:53;2.75;;;1.90;;
24681;SDS011;12802;53.390;-2.328;2022-09-20T17:51:24;3.45;;;1.83;;
24681;SDS011;12802;53.390;-2.328;2022-09-20T17:53:55;3.53;;;1.75;;
24681;SDS011;12802;53.390;-2.328;2022-09-20T17:56:21;3.88;;;1.83;;
24681;SDS011;12802;53.390;-2.328;2022-09-20T17:58:52;5.47;;;1.88;;
24681;SDS011;12802;53.390;-2.328;2022-09-20T18:01:19;3.95;;;2.38;;
24681;SDS011;12802;53.390;-2.328;2022-09-20T18:03:47;5.93;;;1.90;;
24681;SDS011;12802;53.390;-2.328;2022-09-20T18:08:47;2.80;;;1.88;;
24681;SDS011;12802;53.390;-2.328;2022-09-20T18:11:15;4.43;;;2.05;;
24681;SDS011;12802;53.390;-2.328;2022-09-20T18:13:42;3.13;;;1.85;;
24681;SDS011;12802;53.390;-2.328;2022-09-20T18:16:09;3.40;;;2.15;;
24681;SDS011;12802;53.390;-2.328;2022-09-20T18:18:36;3.88;;;2.20;;
24681;SDS011;12802;53.390;-2.328;2022-09-20T18:21:13;4.10;;;1.90;;
24681;SDS011;12802;53.390;-2.328;2022-09-20T18:23:40;3.78;;;1.98;;
24681;SDS011;12802;53.390;-2.328;2022-09-20T18:26:13;6.03;;;2.38;;
24681;SDS011;12802;53.390;-2.328;2022-09-20T18:34:14;3.60;;;2.20;;
24681;SDS011;12802;53.390;-2.328;2022-09-20T18:36:44;4.15;;;2.22;;
24681;SDS011;12802;53.390;-2.328;2022-09-20T18:39:15;4.70;;;2.45;;
24681;SDS011;12802;53.390;-2.328;2022-09-20T18:41:41;5.93;;;2.90;;
24681;SDS011;12802;53.390;-2.328;2022-09-20T18:44:09;4.65;;;1.90;;
24681;SDS011;12802;53.390;-2.328;2022-09-20T18:49:05;2.55;;;1.52;;
24681;SDS011;12802;53.390;-2.328;2022-09-20T18:51:32;2.80;;;2.13;;
24681;SDS011;12802;53.390;-2.328;2022-09-20T18:53:59;3.45;;;1.85;;
24681;SDS011;12802;53.390;-2.328;2022-09-20T18:56:31;5.10;;;2.10;;
24681;SDS011;12802;53.390;-2.328;2022-09-20T18:59:02;3.53;;;2.20;;
24681;SDS011;12802;53.390;-2.328;2022-09-20T19:01:36;2.70;;;1.58;;
24681;SDS011;12802;53.390;-2.328;2022-09-20T19:20:36;10.52;;;2.95;;
24681;SDS011;12802;53.390;-2.328;2022-09-20T19:26:09;5.20;;;2.55;;
24681;SDS011;12802;53.390;-2.328;2022-09-20T19:28:42;7.82;;;2.25;;
24681;SDS011;12802;53.390;-2.328;2022-09-20T19:31:11;5.55;;;2.65;;
24681;SDS011;12802;53.390;-2.328;2022-09-20T19:34:05;4.38;;;2.03;;
24681;SDS011;12802;53.390;-2.328;2022-09-20T19:45:54;5.05;;;2.63;;
24681;SDS011;12802;53.390;-2.328;2022-09-20T19:50:44;5.55;;;2.63;;
24681;SDS011;12802;53.390;-2.328;2022-09-20T19:53:13;5.70;;;2.35;;
24681;SDS011;12802;53.390;-2.328;2022-09-20T19:55:53;4.57;;;2.88;;
24681;SDS011;12802;53.390;-2.328;2022-09-20T19:58:46;5.07;;;2.42;;
24681;SDS011;12802;53.390;-2.328;2022-09-20T20:01:17;4.20;;;2.40;;
24681;SDS011;12802;53.390;-2.328;2022-09-20T20:03:44;7.32;;;2.83;;
24681;SDS011;12802;53.390;-2.328;2022-09-20T20:06:53;7.78;;;2.47;;
24681;SDS011;12802;53.390;-2.328;2022-09-20T20:11:55;3.17;;;2.03;;
24681;SDS011;12802;53.390;-2.328;2022-09-20T20:20:18;11.20;;;2.83;;
24681;SDS011;12802;53.390;-2.328;2022-09-20T20:25:50;4.18;;;2.58;;
24681;SDS011;12802;53.390;-2.328;2022-09-20T20:28:27;5.35;;;2.72;;
24681;SDS011;12802;53.390;-2.328;2022-09-20T20:30:53;8.13;;;3.45;;
24681;SDS011;12802;53.390;-2.328;2022-09-20T20:33:20;5.47;;;2.47;;
24681;SDS011;12802;53.390;-2.328;2022-09-20T20:35:52;5.05;;;3.08;;
24681;SDS011;12802;53.390;-2.328;2022-09-20T20:38:20;11.48;;;2.38;;
24681;SDS011;12802;53.390;-2.328;2022-09-20T20:41:00;6.57;;;3.25;;
24681;SDS011;12802;53.390;-2.328;2022-09-20T20:43:31;4.32;;;2.53;;
24681;SDS011;12802;53.390;-2.328;2022-09-20T20:46:00;5.33;;;2.70;;
24681;SDS011;12802;53.390;-2.328;2022-09-20T20:48:30;3.95;;;2.58;;
24681;SDS011;12802;53.390;-2.328;2022-09-20T20:53:27;5.75;;;3.22;;
24681;SDS011;12802;53.390;-2.328;2022-09-20T20:56:05;7.25;;;2.60;;
24681;SDS011;12802;53.390;-2.328;2022-09-20T20:58:33;7.63;;;2.88;;
24681;SDS011;12802;53.390;-2.328;2022-09-20T21:01:04;5.78;;;2.63;;
24681;SDS011;12802;53.390;-2.328;2022-09-20T21:03:47;8.95;;;3.47;;
24681;SDS011;12802;53.390;-2.328;2022-09-20T21:06:16;6.13;;;3.53;;
24681;SDS011;12802;53.390;-2.328;2022-09-20T21:08:43;7.40;;;2.50;;
24681;SDS011;12802;53.390;-2.328;2022-09-20T21:11:14;6.70;;;3.15;;
24681;SDS011;12802;53.390;-2.328;2022-09-20T21:13:42;5.78;;;3.15;;
24681;SDS011;12802;53.390;-2.328;2022-09-20T21:16:12;3.95;;;2.63;;
24681;SDS011;12802;53.390;-2.328;2022-09-20T21:18:40;3.42;;;2.38;;
24681;SDS011;12802;53.390;-2.328;2022-09-20T21:21:12;4.47;;;2.67;;
24681;SDS011;12802;53.390;-2.328;2022-09-20T21:23:44;6.13;;;3.03;;
24681;SDS011;12802;53.390;-2.328;2022-09-20T21:26:12;3.55;;;2.42;;
24681;SDS011;12802;53.390;-2.328;2022-09-20T21:28:43;13.80;;;3.47;;
24681;SDS011;12802;53.390;-2.328;2022-09-20T21:31:14;5.85;;;3.15;;
24681;SDS011;12802;53.390;-2.328;2022-09-20T21:33:40;6.53;;;3.45;;
24681;SDS011;12802;53.390;-2.328;2022-09-20T21:36:08;6.63;;;2.90;;
24681;SDS011;12802;53.390;-2.328;2022-09-20T21:38:38;9.57;;;3.22;;
24681;SDS011;12802;53.390;-2.328;2022-09-20T21:41:07;7.35;;;4.68;;
24681;SDS011;12802;53.390;-2.328;2022-09-20T21:43:36;10.10;;;3.97;;
24681;SDS011;12802;53.390;-2.328;2022-09-20T21:46:08;6.05;;;3.53;;
24681;SDS011;12802;53.390;-2.328;2022-09-20T21:48:39;5.82;;;3.60;;